General Aviation Weather

Text Reports

Enter one or more of the following location identifiers separated by a space:

Zip Code, Four-Character ICAO or Three-Character IATA airport codes.

METAR - Aviation Routine Weather Report
KSFZ - Pawtucket, Rhode Island
Updated at 11:35 AM GMT on December 19, 2014 (6:35 AM EST):
METAR KSFZ 191135Z 29006KT 10SM OVC045 01/M07 A2989 RMK AO1
TAF - Terminal Area Forecast
KSFZ - Pawtucket, Rhode Island
Updated at 11:35 AM GMT on December 19, 2014 (6:35 AM EST):
No TAF is currently available for this location.
Decoded:
No decoded TAF is available.
PIREP - Pilot Weather Report
KSFZ - Pawtucket, Rhode Island
Updated at 11:35 AM GMT on December 19, 2014 (6:35 AM EST):
No PIREP is currently available for this location.
AIRMET - Airmens Meteorological Information
KSFZ - Pawtucket, Rhode Island
Updated at 11:35 AM GMT on December 19, 2014 (6:35 AM EST):
No AIRMET is currently available for this location.
SIGMET - Significant Meteorological Information
KSFZ - Pawtucket, Rhode Island
Updated at 11:35 AM GMT on December 19, 2014 (6:35 AM EST):
No SIGMET is currently available for this location.
NOTAM - Notice to Airmen
KSFZ - Pawtucket, Rhode Island
Updated at 11:35 AM GMT on December 19, 2014 (6:35 AM EST):
No NOTAM is currently available for this location.
Forecast Area
KSFZ - Pawtucket, Rhode Island
Updated at 11:35 AM GMT on December 19, 2014 (6:35 AM EST):
No NOTAM is currently available for this location.
Aviation Weather Maps